Time;durP1;ratioP1;P1;durP2;ratioP2;P2;SDS_P1;SDS_P2;PMS_P1;PMS_P2;Temp;Humidity;BMP_temperature;BMP_pressure;BME280_temperature;BME280_humidity;BME280_pressure;Samples;Min_cycle;Max_cycle;Signal;HPM_P1;HPM_P2
2022/09/03 00:01:00;;;;;;;0.60;0.47;;;18.80;1.00;;;;;;5096565;28;20480;-71
2022/09/03 00:03:32;;;;;;;2.60;0.40;;;18.80;1.00;;;;;;5094496;28;20487;-73
2022/09/03 00:06:11;;;;;;;0.67;0.50;;;18.90;1.00;;;;;;5095970;28;20503;-72
2022/09/03 00:08:45;;;;;;;0.73;0.40;;;18.80;1.00;;;;;;5096607;28;20509;-72
2022/09/03 00:11:18;;;;;;;0.80;0.60;;;18.80;1.00;;;;;;5095845;28;20535;-72
2022/09/03 00:13:51;;;;;;;1.40;0.57;;;18.90;1.00;;;;;;5095336;28;20662;-73
2022/09/03 00:16:22;;;;;;;0.80;0.40;;;18.90;1.00;;;;;;5095991;28;21091;-73
2022/09/03 00:18:54;;;;;;;0.70;0.50;;;18.90;1.00;;;;;;5093177;28;20481;-72
2022/09/03 00:21:31;;;;;;;0.60;0.50;;;18.90;1.00;;;;;;5099619;28;20446;-72
2022/09/03 00:24:03;;;;;;;0.80;0.40;;;18.90;1.00;;;;;;5099766;28;20480;-73
2022/09/03 00:26:34;;;;;;;1.13;0.70;;;18.90;1.00;;;;;;5098061;28;20442;-72
2022/09/03 00:29:07;;;;;;;0.73;0.50;;;18.90;1.00;;;;;;5098893;28;20480;-72
2022/09/03 00:31:37;;;;;;;0.77;0.50;;;19.00;1.00;;;;;;5096057;28;20445;-73
2022/09/03 00:34:09;;;;;;;0.60;0.40;;;18.90;1.00;;;;;;5098485;28;20981;-73
2022/09/03 00:36:41;;;;;;;0.93;0.50;;;19.00;1.00;;;;;;5097436;28;20449;-73
2022/09/03 00:39:12;;;;;;;0.60;0.40;;;19.10;1.00;;;;;;5099285;28;20446;-72
2022/09/03 00:41:47;;;;;;;0.50;0.40;;;19.10;1.00;;;;;;5099405;28;20450;-72
2022/09/03 00:44:48;;;;;;;0.60;0.50;;;19.20;1.00;;;;;;5098907;28;20472;-72
2022/09/03 00:47:24;;;;;;;0.50;0.40;;;19.20;1.00;;;;;;5097104;28;20748;-72
2022/09/03 00:50:03;;;;;;;0.67;0.40;;;19.20;1.00;;;;;;5099130;28;20476;-72
2022/09/03 00:52:44;;;;;;;0.60;0.40;;;19.10;1.00;;;;;;5097961;28;20940;-72
2022/09/03 00:55:28;;;;;;;0.70;0.40;;;19.20;1.00;;;;;;5099343;28;20441;-72
2022/09/03 00:58:19;;;;;;;0.73;0.40;;;19.20;1.00;;;;;;5096780;28;20449;-73
2022/09/03 01:00:48;;;;;;;0.50;0.30;;;19.20;1.00;;;;;;5099039;28;20762;-73
2022/09/03 01:03:25;;;;;;;0.70;0.50;;;19.20;1.00;;;;;;5099492;28;20462;-73
2022/09/03 01:06:10;;;;;;;0.60;0.40;;;19.20;1.00;;;;;;5097950;28;20527;-73
2022/09/03 01:09:00;;;;;;;0.80;0.50;;;19.20;1.00;;;;;;5099369;28;20491;-73
2022/09/03 01:11:43;;;;;;;0.60;0.40;;;19.20;1.00;;;;;;5099343;28;20446;-72
2022/09/03 01:14:25;;;;;;;0.70;0.40;;;19.10;1.00;;;;;;5096869;28;20483;-72
2022/09/03 01:16:56;;;;;;;0.60;0.50;;;19.10;1.00;;;;;;5099948;28;20445;-72
2022/09/03 01:19:53;;;;;;;0.50;0.40;;;19.10;1.00;;;;;;5096599;28;20801;-72
2022/09/03 01:22:51;;;;;;;0.80;0.40;;;19.10;1.00;;;;;;5092171;28;20449;-72
2022/09/03 01:25:35;;;;;;;0.60;0.40;;;19.10;1.00;;;;;;5096197;28;20572;-72
2022/09/03 01:28:19;;;;;;;0.60;0.50;;;19.30;1.00;;;;;;5096362;28;20441;-73
2022/09/03 01:31:01;;;;;;;0.70;0.40;;;19.30;1.00;;;;;;5095351;28;20548;-72
2022/09/03 01:33:33;;;;;;;0.50;0.40;;;19.20;1.00;;;;;;5098941;28;20447;-72
2022/09/03 01:36:06;;;;;;;0.60;0.50;;;19.20;1.00;;;;;;5099008;28;20445;-73
2022/09/03 01:38:42;;;;;;;0.60;0.40;;;19.20;1.00;;;;;;5098670;28;20453;-73
2022/09/03 01:44:31;;;;;;;2.20;0.50;;;19.10;1.00;;;;;;5035394;28;20476;-72
2022/09/03 01:47:10;;;;;;;0.60;0.40;;;19.10;1.00;;;;;;5036027;28;20440;-73
2022/09/03 01:49:43;;;;;;;0.90;0.50;;;19.00;1.00;;;;;;5070722;28;20953;-72
2022/09/03 01:52:14;;;;;;;0.57;0.40;;;19.10;1.00;;;;;;5098455;28;20450;-72
2022/09/03 01:54:54;;;;;;;0.60;0.30;;;19.10;1.00;;;;;;5095880;28;20457;-72
2022/09/03 01:57:50;;;;;;;0.60;0.40;;;19.00;1.00;;;;;;5098580;28;20478;-74
2022/09/03 02:00:20;;;;;;;0.90;0.40;;;19.00;1.00;;;;;;5080674;28;20573;-71
2022/09/03 02:02:49;;;;;;;0.50;0.40;;;18.90;1.00;;;;;;5097882;28;20442;-71
2022/09/03 02:05:22;;;;;;;0.67;0.47;;;18.80;1.00;;;;;;5095449;28;20461;-71
2022/09/03 02:07:56;;;;;;;0.60;0.40;;;18.80;1.00;;;;;;5096749;28;20754;-71
2022/09/03 02:10:29;;;;;;;0.70;0.50;;;18.80;1.00;;;;;;5095281;28;20528;-71
2022/09/03 02:13:10;;;;;;;0.90;0.40;;;18.80;1.00;;;;;;5098065;28;20520;-73
2022/09/03 02:15:42;;;;;;;0.57;0.37;;;18.70;1.00;;;;;;5095635;28;20905;-72
2022/09/03 02:18:15;;;;;;;0.97;0.50;;;18.70;1.00;;;;;;5097244;28;20454;-72
2022/09/03 02:20:43;;;;;;;0.60;0.37;;;18.70;1.00;;;;;;5096175;28;20489;-72
2022/09/03 02:23:11;;;;;;;0.60;0.40;;;18.60;1.00;;;;;;5097947;28;20461;-71
2022/09/03 02:25:43;;;;;;;0.50;0.37;;;18.70;1.00;;;;;;5096120;28;20461;-71
2022/09/03 02:28:10;;;;;;;0.80;0.40;;;18.70;1.00;;;;;;5097704;28;20445;-71
2022/09/03 02:30:38;;;;;;;0.50;0.30;;;18.70;1.00;;;;;;5095462;28;20484;-71
2022/09/03 02:33:05;;;;;;;0.70;0.30;;;18.70;1.00;;;;;;5096484;28;20897;-71
2022/09/03 02:35:32;;;;;;;0.40;0.40;;;18.60;1.00;;;;;;5095390;28;20453;-71
2022/09/03 02:38:10;;;;;;;0.73;0.50;;;18.70;1.00;;;;;;5097506;28;20539;-73
2022/09/03 02:40:38;;;;;;;0.40;0.30;;;18.70;1.00;;;;;;5095555;28;20534;-73
2022/09/03 02:43:08;;;;;;;0.60;0.40;;;18.70;1.00;;;;;;5096079;28;20460;-73
2022/09/03 02:45:42;;;;;;;0.70;0.50;;;18.70;1.00;;;;;;5093483;28;20510;-72
2022/09/03 02:48:11;;;;;;;0.50;0.40;;;18.70;1.00;;;;;;5094339;28;20449;-71
2022/09/03 02:50:41;;;;;;;0.87;0.43;;;18.70;1.00;;;;;;5092982;28;20477;-71
2022/09/03 02:53:08;;;;;;;0.50;0.40;;;18.60;1.00;;;;;;5095277;28;20445;-73
2022/09/03 02:55:35;;;;;;;0.50;0.40;;;18.60;1.00;;;;;;5092661;28;20828;-71
2022/09/03 02:58:05;;;;;;;0.77;0.50;;;18.50;1.00;;;;;;5095144;28;21237;-72
2022/09/03 03:00:33;;;;;;;0.50;0.40;;;18.40;1.00;;;;;;5092980;28;20521;-71
2022/09/03 03:03:01;;;;;;;0.90;0.30;;;18.40;1.00;;;;;;5097327;28;20642;-71
2022/09/03 03:05:42;;;;;;;0.57;0.40;;;18.40;1.00;;;;;;5095381;28;20461;-74
2022/09/03 03:08:09;;;;;;;0.60;0.40;;;18.40;1.00;;;;;;5097011;28;20503;-73
2022/09/03 03:10:36;;;;;;;0.73;0.40;;;18.30;1.00;;;;;;5095467;28;20449;-74
2022/09/03 03:13:03;;;;;;;0.70;0.50;;;18.30;1.00;;;;;;5095476;28;20934;-71
2022/09/03 03:15:30;;;;;;;0.50;0.40;;;18.30;1.00;;;;;;5094250;28;20514;-71
2022/09/03 03:17:57;;;;;;;0.70;0.50;;;18.40;1.00;;;;;;5094649;28;20506;-73
2022/09/03 03:20:25;;;;;;;0.63;0.40;;;18.40;1.00;;;;;;5093215;28;20789;-73
2022/09/03 03:22:52;;;;;;;1.03;0.40;;;18.40;1.00;;;;;;5095284;28;20484;-73
2022/09/03 03:25:19;;;;;;;2.77;0.50;;;18.50;1.00;;;;;;5094043;28;20885;-73
2022/09/03 03:27:46;;;;;;;0.70;0.50;;;18.50;1.00;;;;;;5095898;28;20528;-73
2022/09/03 03:30:13;;;;;;;0.70;0.50;;;18.40;1.00;;;;;;5093897;28;20446;-73
2022/09/03 03:32:40;;;;;;;1.70;0.50;;;18.40;1.00;;;;;;5095482;28;20801;-73
2022/09/03 03:35:10;;;;;;;0.70;0.40;;;18.30;1.00;;;;;;5093942;28;20449;-73
2022/09/03 03:37:38;;;;;;;0.50;0.40;;;18.30;1.00;;;;;;5096199;28;20449;-72
2022/09/03 03:40:06;;;;;;;0.60;0.40;;;18.30;1.00;;;;;;5094410;28;20453;-73
2022/09/03 03:42:34;;;;;;;0.70;0.50;;;18.30;1.00;;;;;;5095039;28;20565;-73
2022/09/03 03:45:01;;;;;;;0.67;0.50;;;18.30;1.00;;;;;;5094153;28;20793;-73
2022/09/03 03:47:29;;;;;;;0.87;0.50;;;18.30;1.00;;;;;;5095144;28;20446;-73
2022/09/03 03:49:56;;;;;;;0.67;0.40;;;18.30;1.00;;;;;;5094408;28;20479;-73
2022/09/03 03:52:24;;;;;;;0.60;0.40;;;18.40;1.00;;;;;;5095699;28;20470;-73
2022/09/03 03:54:52;;;;;;;0.60;0.50;;;18.40;1.00;;;;;;5096133;28;20678;-73
2022/09/03 03:57:22;;;;;;;0.60;0.40;;;18.30;1.00;;;;;;5100849;28;20549;-73
2022/09/03 03:59:50;;;;;;;0.50;0.47;;;18.30;1.00;;;;;;5098677;28;20453;-72
2022/09/03 04:02:18;;;;;;;0.90;0.50;;;18.30;1.00;;;;;;5100469;28;20477;-73
2022/09/03 04:04:45;;;;;;;0.60;0.47;;;18.30;1.00;;;;;;5097935;28;20453;-72
2022/09/03 04:07:12;;;;;;;0.67;0.50;;;18.20;1.00;;;;;;5099802;28;20545;-72
2022/09/03 04:09:39;;;;;;;0.77;0.50;;;18.10;1.00;;;;;;5097904;28;20489;-72
2022/09/03 04:12:07;;;;;;;0.60;0.43;;;18.00;1.00;;;;;;5100500;28;20498;-73
2022/09/03 04:14:35;;;;;;;0.67;0.50;;;18.00;1.00;;;;;;5097097;28;20552;-72
2022/09/03 04:17:02;;;;;;;0.90;0.50;;;17.90;1.00;;;;;;5100699;28;20501;-72
2022/09/03 04:19:29;;;;;;;0.80;0.60;;;17.90;1.00;;;;;;5097888;28;20787;-73
2022/09/03 04:21:56;;;;;;;0.60;0.50;;;17.90;1.00;;;;;;5099292;28;20481;-73
2022/09/03 04:24:23;;;;;;;0.60;0.40;;;17.90;1.00;;;;;;5097116;28;20507;-72
2022/09/03 04:26:50;;;;;;;1.43;1.33;;;17.90;1.00;;;;;;5100490;28;20808;-73
2022/09/03 04:29:20;;;;;;;1.60;0.50;;;17.90;1.00;;;;;;5096957;28;20454;-73
2022/09/03 04:34:28;;;;;;;0.70;0.50;;;17.80;1.00;;;;;;5097834;28;20440;-72
2022/09/03 04:36:56;;;;;;;1.13;0.50;;;17.70;1.00;;;;;;5100366;28;20490;-72
2022/09/03 04:39:24;;;;;;;0.83;0.53;;;17.70;1.00;;;;;;5097586;28;20457;-72
2022/09/03 04:41:51;;;;;;;0.87;0.50;;;17.70;1.00;;;;;;5100161;28;20489;-72
2022/09/03 04:44:19;;;;;;;1.13;0.50;;;17.80;1.00;;;;;;5098914;28;20453;-72
2022/09/03 04:46:47;;;;;;;0.60;0.50;;;17.70;1.00;;;;;;5099714;28;20433;-72
2022/09/03 04:49:14;;;;;;;0.80;0.57;;;17.70;1.00;;;;;;5098930;28;20552;-72
2022/09/03 04:51:40;;;;;;;0.63;0.50;;;17.70;1.00;;;;;;5100019;28;20437;-71
2022/09/03 04:54:08;;;;;;;0.80;0.50;;;17.60;1.00;;;;;;5098240;28;20461;-71
2022/09/03 04:56:36;;;;;;;0.60;0.50;;;17.60;39.10;;;;;;5099593;28;20453;-71
2022/09/03 04:59:05;;;;;;;0.63;0.50;;;17.70;31.90;;;;;;5097310;28;20457;-71
2022/09/03 05:01:35;;;;;;;0.77;0.50;;;17.70;1.00;;;;;;5098856;28;20549;-71
2022/09/03 05:04:04;;;;;;;0.60;0.47;;;17.80;1.00;;;;;;5097506;28;20950;-71
2022/09/03 05:06:32;;;;;;;1.73;0.53;;;17.90;1.00;;;;;;5097842;28;20863;-71
2022/09/03 05:08:59;;;;;;;1.20;0.50;;;18.10;1.00;;;;;;5097287;28;20445;-71
2022/09/03 05:11:27;;;;;;;0.80;0.60;;;18.10;1.00;;;;;;5097139;28;20442;-72
2022/09/03 05:13:57;;;;;;;0.80;0.50;;;18.00;1.00;;;;;;5097195;28;20726;-71
2022/09/03 05:16:25;;;;;;;2.20;0.50;;;18.00;1.00;;;;;;5097898;28;20452;-71
2022/09/03 05:18:55;;;;;;;0.80;0.63;;;18.00;1.00;;;;;;5096936;28;21039;-72
2022/09/03 05:21:22;;;;;;;1.03;0.60;;;18.00;1.00;;;;;;5098131;28;20576;-72
2022/09/03 05:23:50;;;;;;;0.70;0.50;;;17.90;36.80;;;;;;5096489;28;20500;-73
2022/09/03 05:26:19;;;;;;;1.03;0.70;;;17.90;96.70;;;;;;5098471;28;20905;-72
2022/09/03 05:28:46;;;;;;;0.70;0.60;;;17.90;99.90;;;;;;5097086;28;20590;-72
2022/09/03 05:31:15;;;;;;;0.90;0.53;;;17.90;90.60;;;;;;5098007;28;20453;-72
2022/09/03 05:33:43;;;;;;;4.03;0.60;;;17.90;99.90;;;;;;5096971;28;20519;-71
2022/09/03 05:36:13;;;;;;;2.70;0.60;;;17.90;99.90;;;;;;5098842;28;20445;-72
2022/09/03 05:38:40;;;;;;;0.97;0.60;;;17.90;99.90;;;;;;5094354;28;20941;-72
2022/09/03 05:41:10;;;;;;;1.10;0.70;;;18.00;99.90;;;;;;5097744;28;20778;-72
2022/09/03 05:43:37;;;;;;;0.87;0.57;;;18.10;99.90;;;;;;5096175;28;20529;-73
2022/09/03 05:46:06;;;;;;;0.60;0.50;;;18.10;99.90;;;;;;5098073;28;20442;-71
2022/09/03 05:48:34;;;;;;;0.60;0.50;;;18.10;99.90;;;;;;5095997;28;20815;-72
2022/09/03 05:51:03;;;;;;;1.60;0.70;;;18.20;99.90;;;;;;5098556;28;20445;-71
2022/09/03 05:53:33;;;;;;;2.27;0.70;;;18.20;99.90;;;;;;5097803;28;20485;-71
2022/09/03 05:56:02;;;;;;;0.70;0.60;;;18.20;99.90;;;;;;5098128;28;20503;-71
2022/09/03 05:58:30;;;;;;;0.80;0.60;;;18.20;99.90;;;;;;5098173;28;20503;-71
2022/09/03 06:00:57;;;;;;;0.70;0.60;;;18.20;99.90;;;;;;5096214;28;20527;-71
2022/09/03 06:03:24;;;;;;;1.73;1.57;;;18.10;99.90;;;;;;5096919;28;20446;-71
2022/09/03 06:05:52;;;;;;;0.80;0.50;;;18.20;99.90;;;;;;5095228;28;20481;-70
2022/09/03 06:08:19;;;;;;;0.97;0.70;;;18.20;99.90;;;;;;5096313;28;20495;-70
2022/09/03 06:10:47;;;;;;;0.83;0.67;;;18.20;99.90;;;;;;5096463;28;20510;-69
2022/09/03 06:13:14;;;;;;;1.40;0.63;;;18.10;99.90;;;;;;5097582;28;20471;-70
2022/09/03 06:15:41;;;;;;;3.27;0.73;;;18.10;99.90;;;;;;5096172;28;20481;-70
2022/09/03 06:18:08;;;;;;;0.70;0.57;;;18.10;99.90;;;;;;5097269;28;20503;-70
2022/09/03 06:20:35;;;;;;;0.87;0.60;;;18.10;99.90;;;;;;5095719;28;20551;-70
2022/09/03 06:23:02;;;;;;;1.87;0.90;;;18.10;99.90;;;;;;5097593;28;20538;-70
2022/09/03 06:25:30;;;;;;;0.90;0.60;;;18.10;99.90;;;;;;5095257;28;20459;-70
2022/09/03 06:27:59;;;;;;;1.03;0.60;;;18.20;99.90;;;;;;5096750;28;20473;-70
2022/09/03 06:30:26;;;;;;;0.80;0.70;;;18.20;99.90;;;;;;5096616;28;20741;-70
2022/09/03 06:32:54;;;;;;;0.97;0.60;;;18.40;99.90;;;;;;5096772;28;20541;-70
2022/09/03 06:35:21;;;;;;;0.80;0.60;;;18.40;99.90;;;;;;5095025;28;20794;-69
2022/09/03 06:37:48;;;;;;;4.80;0.73;;;18.50;99.90;;;;;;5096788;28;20489;-70
2022/09/03 06:40:21;;;;;;;0.80;0.73;;;18.60;99.90;;;;;;5095529;28;20769;-70
2022/09/03 06:42:56;;;;;;;1.73;0.70;;;18.70;99.90;;;;;;5096557;28;20957;-69
2022/09/03 06:45:25;;;;;;;0.90;0.70;;;18.80;99.90;;;;;;5095318;28;20669;-71
2022/09/03 06:47:53;;;;;;;1.20;0.80;;;18.80;99.90;;;;;;5097458;28;20745;-70
2022/09/03 06:50:20;;;;;;;1.10;0.83;;;18.80;99.90;;;;;;5093864;28;20869;-71
2022/09/03 06:52:53;;;;;;;2.30;0.70;;;18.80;99.90;;;;;;5095616;28;20450;-70
2022/09/03 06:55:21;;;;;;;1.37;0.70;;;18.90;99.90;;;;;;5094513;28;20542;-70
2022/09/03 06:57:48;;;;;;;0.80;0.70;;;19.00;99.90;;;;;;5096375;28;20457;-70
2022/09/03 07:00:15;;;;;;;1.43;0.70;;;19.00;99.90;;;;;;5097020;28;20453;-69
2022/09/03 07:02:44;;;;;;;1.10;0.70;;;19.00;99.90;;;;;;5097365;28;20570;-70
2022/09/03 07:05:11;;;;;;;1.13;0.90;;;19.00;99.90;;;;;;5094008;28;20459;-71
2022/09/03 07:07:38;;;;;;;1.83;0.90;;;19.00;99.90;;;;;;5096508;28;20552;-70
2022/09/03 07:10:06;;;;;;;1.00;0.80;;;18.90;1.00;;;;;;5095152;28;20518;-69
2022/09/03 07:12:33;;;;;;;1.20;0.83;;;19.00;1.00;;;;;;5096757;28;20498;-70
2022/09/03 07:15:00;;;;;;;1.30;0.73;;;18.90;1.00;;;;;;5095216;28;20477;-72
2022/09/03 07:17:27;;;;;;;0.70;0.50;;;18.90;1.00;;;;;;5095737;28;20441;-71
2022/09/03 07:19:55;;;;;;;1.00;0.90;;;19.00;1.00;;;;;;5093177;28;20477;-71
2022/09/03 07:22:22;;;;;;;1.17;0.70;;;19.00;1.00;;;;;;5095419;28;20562;-70
2022/09/03 07:24:51;;;;;;;2.40;0.80;;;19.00;1.00;;;;;;5093984;28;20541;-70
2022/09/03 07:27:18;;;;;;;1.00;0.80;;;19.00;1.00;;;;;;5093007;28;20888;-71
2022/09/03 07:29:45;;;;;;;1.00;0.73;;;19.10;1.00;;;;;;5094491;28;20446;-70
2022/09/03 07:32:12;;;;;;;0.90;0.80;;;19.10;18.20;;;;;;5093400;28;20480;-73
2022/09/03 07:34:38;;;;;;;0.80;0.77;;;19.20;73.80;;;;;;5094356;28;20549;-70
2022/09/03 07:37:10;;;;;;;0.90;0.80;;;19.20;13.30;;;;;;5094906;28;20457;-71
2022/09/03 07:39:37;;;;;;;1.00;0.80;;;19.30;1.00;;;;;;5094836;28;20469;-70
2022/09/03 07:42:04;;;;;;;1.10;0.90;;;19.40;1.00;;;;;;5093477;28;20515;-71
2022/09/03 07:44:31;;;;;;;1.83;0.70;;;19.50;1.00;;;;;;5093917;28;21320;-70
2022/09/03 07:46:59;;;;;;;0.90;0.80;;;19.70;1.00;;;;;;5091768;28;20488;-70
2022/09/03 07:49:26;;;;;;;1.60;0.80;;;20.00;99.90;;;;;;5092332;28;20441;-70
2022/09/03 07:51:53;;;;;;;1.30;0.90;;;20.10;1.00;;;;;;5090910;28;20552;-71
2022/09/03 07:54:22;;;;;;;1.00;0.80;;;20.10;1.00;;;;;;5092074;28;20449;-71
2022/09/03 07:56:50;;;;;;;1.00;0.80;;;20.20;99.90;;;;;;5092010;28;20458;-70
2022/09/03 07:59:18;;;;;;;2.13;0.90;;;20.30;99.90;;;;;;5093068;28;20824;-69
2022/09/03 08:01:45;;;;;;;1.10;0.90;;;20.20;99.90;;;;;;5091024;28;20520;-69
2022/09/03 08:04:12;;;;;;;1.40;1.00;;;20.20;99.90;;;;;;5093985;28;20946;-69
2022/09/03 08:06:39;;;;;;;0.90;0.80;;;20.10;1.00;;;;;;5092810;28;20477;-69
2022/09/03 08:09:12;;;;;;;1.30;0.80;;;20.10;1.00;;;;;;5094380;28;20479;-70
2022/09/03 08:11:43;;;;;;;1.20;0.80;;;20.20;1.00;;;;;;5093529;28;20279;-69
2022/09/03 08:14:11;;;;;;;2.20;0.80;;;20.30;99.90;;;;;;5094998;28;20430;-71
2022/09/03 08:16:40;;;;;;;0.90;0.70;;;20.40;99.90;;;;;;5091902;28;20552;-70
2022/09/03 08:19:07;;;;;;;1.00;0.77;;;20.60;99.90;;;;;;5092564;28;20449;-70
2022/09/03 08:21:35;;;;;;;2.70;0.70;;;20.70;99.90;;;;;;5092892;28;20453;-70
2022/09/03 08:24:02;;;;;;;1.07;0.70;;;20.80;99.90;;;;;;5093723;28;20912;-70
2022/09/03 08:26:30;;;;;;;0.97;0.80;;;21.00;99.90;;;;;;5092024;28;20772;-70
2022/09/03 08:28:59;;;;;;;1.50;0.80;;;21.30;99.90;;;;;;5094238;28;20451;-70
2022/09/03 08:31:27;;;;;;;0.90;0.70;;;21.50;99.90;;;;;;5091768;28;20518;-71
2022/09/03 08:33:57;;;;;;;0.98;0.85;;;21.80;99.90;;;;;;5093266;28;20846;-71
2022/09/03 08:36:26;;;;;;;1.08;0.90;;;21.90;95.50;;;;;;5095275;28;20821;-70
2022/09/03 08:38:54;;;;;;;1.07;0.80;;;22.20;19.60;;;;;;5113646;28;20622;-70
2022/09/03 08:41:36;;;;;;;1.10;0.80;;;22.60;1.00;;;;;;5114343;28;20514;-71
2022/09/03 08:44:23;;;;;;;1.40;0.90;;;22.90;1.00;;;;;;5117723;28;20436;-70
2022/09/03 08:46:54;;;;;;;1.00;0.80;;;23.00;1.00;;;;;;5115945;28;20476;-70
2022/09/03 08:49:25;;;;;;;1.00;0.70;;;23.10;1.00;;;;;;5113113;28;20468;-71
2022/09/03 08:51:56;;;;;;;1.17;0.80;;;23.00;1.00;;;;;;5116672;28;20541;-71
2022/09/03 08:54:29;;;;;;;1.10;0.80;;;23.20;1.00;;;;;;5110109;28;20457;-72
2022/09/03 08:57:00;;;;;;;1.10;0.77;;;23.20;1.00;;;;;;5097414;28;20527;-71
2022/09/03 08:59:30;;;;;;;0.87;0.67;;;23.10;1.00;;;;;;5096863;28;20753;-71
2022/09/03 09:02:05;;;;;;;1.23;0.77;;;23.10;1.00;;;;;;5096471;28;20485;-71
2022/09/03 09:04:44;;;;;;;1.43;0.90;;;23.20;1.00;;;;;;5111486;28;20536;-71
2022/09/03 09:07:17;;;;;;;1.20;0.83;;;23.20;1.00;;;;;;5114134;28;20482;-71
2022/09/03 09:09:50;;;;;;;0.90;0.70;;;23.10;1.00;;;;;;5115109;28;20509;-72
2022/09/03 09:12:29;;;;;;;0.90;0.70;;;23.20;1.00;;;;;;5116994;28;20484;-71
2022/09/03 09:15:10;;;;;;;1.57;0.80;;;23.10;1.00;;;;;;5118440;28;20455;-71
2022/09/03 09:17:55;;;;;;;1.23;0.70;;;23.00;1.00;;;;;;5109005;28;20512;-70
2022/09/03 09:20:32;;;;;;;1.53;0.90;;;22.90;1.00;;;;;;5119215;28;20501;-70
2022/09/03 09:23:04;;;;;;;1.40;0.93;;;23.00;1.00;;;;;;5106454;28;20512;-73
2022/09/03 09:25:36;;;;;;;1.10;0.80;;;23.00;1.00;;;;;;5115518;27;21064;-72
2022/09/03 09:28:13;;;;;;;1.30;0.77;;;22.90;1.00;;;;;;5108111;28;20444;-70
2022/09/03 09:30:44;;;;;;;1.00;0.80;;;23.00;1.00;;;;;;5095737;28;20441;-70
2022/09/03 09:33:11;;;;;;;0.87;0.70;;;23.10;1.00;;;;;;5097536;28;20442;-70
2022/09/03 09:35:41;;;;;;;1.40;0.70;;;23.20;1.00;;;;;;5095480;28;20485;-71
2022/09/03 09:38:08;;;;;;;1.43;0.80;;;23.30;1.00;;;;;;5100645;28;21109;-70
2022/09/03 09:40:37;;;;;;;1.00;0.80;;;23.50;1.00;;;;;;5115874;28;20445;-69
2022/09/03 09:43:10;;;;;;;0.80;0.70;;;23.80;1.00;;;;;;5102466;28;20574;-70
2022/09/03 09:45:40;;;;;;;1.50;0.80;;;24.00;1.00;;;;;;5095801;28;20575;-70
2022/09/03 09:48:18;;;;;;;0.80;0.80;;;24.10;1.00;;;;;;5095584;28;20849;-70
2022/09/03 09:50:45;;;;;;;1.03;0.77;;;23.80;1.00;;;;;;5098977;28;20480;-70
2022/09/03 09:53:16;;;;;;;0.90;0.80;;;23.90;1.00;;;;;;5099563;28;20487;-69
2022/09/03 09:55:52;;;;;;;1.07;0.83;;;23.70;1.00;;;;;;5104053;28;20445;-70
2022/09/03 09:58:22;;;;;;;1.00;0.80;;;23.80;1.00;;;;;;5116709;28;20452;-71
2022/09/03 10:01:12;;;;;;;1.20;0.83;;;23.70;1.00;;;;;;5109158;28;20445;-71
2022/09/03 10:03:49;;;;;;;0.90;0.80;;;23.70;1.00;;;;;;5095806;28;20535;-69
2022/09/03 10:09:09;;;;;;;1.20;0.97;;;23.90;1.00;;;;;;5116245;28;20428;-70
2022/09/03 10:11:38;;;;;;;0.90;0.80;;;23.80;1.00;;;;;;5113348;28;20452;-70
2022/09/03 10:14:10;;;;;;;1.60;0.80;;;23.90;1.00;;;;;;5115024;28;20831;-70
2022/09/03 10:16:44;;;;;;;4.20;0.70;;;23.90;1.00;;;;;;5116454;28;20453;-70
2022/09/03 10:19:19;;;;;;;1.60;0.80;;;24.00;1.00;;;;;;5097280;28;20485;-70
2022/09/03 10:21:53;;;;;;;1.13;0.83;;;24.00;1.00;;;;;;5094393;28;20460;-69
2022/09/03 10:24:44;;;;;;;1.13;0.80;;;24.10;1.00;;;;;;5096889;28;20476;-69
2022/09/03 10:27:15;;;;;;;1.40;0.83;;;23.80;1.00;;;;;;5096181;28;20546;-70
2022/09/03 10:29:42;;;;;;;1.97;0.80;;;23.80;1.00;;;;;;5096638;28;20453;-70
2022/09/03 10:32:25;;;;;;;1.37;0.90;;;23.70;1.00;;;;;;5097692;28;20458;-69
2022/09/03 10:35:03;;;;;;;1.00;0.80;;;23.60;1.00;;;;;;5098373;28;20464;-70
2022/09/03 10:37:39;;;;;;;1.20;1.00;;;23.70;1.00;;;;;;5093942;28;20468;-69
2022/09/03 10:40:29;;;;;;;1.10;0.87;;;23.80;1.00;;;;;;5095412;28;20520;-70
2022/09/03 10:43:09;;;;;;;0.80;0.70;;;23.60;1.00;;;;;;5097159;28;20485;-70
2022/09/03 10:45:41;;;;;;;0.90;0.80;;;23.70;1.00;;;;;;5097991;28;20564;-70
2022/09/03 10:48:37;;;;;;;1.37;0.73;;;23.90;1.00;;;;;;5114037;28;20452;-71
2022/09/03 10:51:14;;;;;;;0.90;0.80;;;23.70;1.00;;;;;;5099355;28;20549;-71
2022/09/03 10:53:55;;;;;;;1.47;0.90;;;23.70;1.00;;;;;;5113600;28;20734;-71
2022/09/03 10:56:32;;;;;;;1.80;0.90;;;23.90;1.00;;;;;;5106999;28;20459;-70
2022/09/03 10:59:14;;;;;;;1.00;0.90;;;24.20;1.00;;;;;;5096656;28;20461;-70
2022/09/03 11:01:48;;;;;;;1.00;0.90;;;24.40;1.00;;;;;;5100016;28;21074;-71
2022/09/03 11:04:25;;;;;;;0.80;0.70;;;24.50;1.00;;;;;;5105760;28;20492;-72
2022/09/03 11:06:57;;;;;;;1.03;0.83;;;24.40;1.00;;;;;;5094692;28;20577;-71
2022/09/03 11:09:29;;;;;;;1.40;1.07;;;24.40;1.00;;;;;;5092185;28;20497;-70
2022/09/03 11:12:00;;;;;;;1.10;0.90;;;24.30;1.00;;;;;;5103185;28;20477;-71
2022/09/03 11:14:36;;;;;;;1.10;0.90;;;23.90;1.00;;;;;;5102003;28;20537;-71
2022/09/03 11:17:07;;;;;;;2.67;0.77;;;23.70;1.00;;;;;;5104799;28;20460;-70
2022/09/03 11:19:41;;;;;;;1.27;0.90;;;23.90;1.00;;;;;;5109675;28;20500;-71
2022/09/03 11:22:11;;;;;;;4.07;1.00;;;24.10;1.00;;;;;;5107416;28;20461;-71
2022/09/03 11:24:40;;;;;;;0.90;0.80;;;24.00;1.00;;;;;;5093066;28;20780;-71
2022/09/03 11:27:22;;;;;;;1.03;0.90;;;24.00;1.00;;;;;;5097131;28;20536;-70
2022/09/03 11:29:59;;;;;;;1.10;0.93;;;24.00;1.00;;;;;;5098436;28;20460;-70
2022/09/03 11:32:35;;;;;;;1.60;0.93;;;24.00;1.00;;;;;;5096130;28;20539;-70
2022/09/03 11:35:15;;;;;;;1.30;1.10;;;24.10;1.00;;;;;;5095999;28;20488;-70
2022/09/03 11:37:53;;;;;;;1.70;0.90;;;24.00;1.00;;;;;;5094817;28;20548;-70
2022/09/03 11:40:28;;;;;;;1.00;0.90;;;24.00;1.00;;;;;;5095978;28;20547;-70
2022/09/03 11:43:07;;;;;;;1.80;0.90;;;23.90;1.00;;;;;;5110291;28;20578;-70
2022/09/03 11:45:40;;;;;;;1.63;0.93;;;23.60;1.00;;;;;;5113483;28;20466;-70
2022/09/03 11:48:33;;;;;;;1.30;0.90;;;23.60;1.00;;;;;;5106233;28;20668;-70
2022/09/03 11:51:00;;;;;;;1.97;0.80;;;23.40;1.00;;;;;;5108970;28;20489;-70
2022/09/03 11:53:34;;;;;;;1.17;1.00;;;23.20;1.00;;;;;;5107343;28;20531;-70
2022/09/03 11:56:13;;;;;;;2.93;0.83;;;23.20;1.00;;;;;;5107927;28;20518;-71
2022/09/03 11:58:41;;;;;;;1.30;1.00;;;23.10;1.00;;;;;;5108227;28;20461;-71
2022/09/03 12:01:11;;;;;;;1.10;0.83;;;23.00;1.00;;;;;;5112408;28;20903;-70
2022/09/03 12:03:44;;;;;;;2.40;0.90;;;23.00;1.00;;;;;;5097939;28;20472;-72
2022/09/03 12:06:38;;;;;;;0.83;0.80;;;22.90;1.00;;;;;;5093268;28;20473;-70
2022/09/03 12:09:35;;;;;;;1.20;0.90;;;22.90;1.00;;;;;;5095129;28;20452;-72
2022/09/03 12:12:14;;;;;;;1.10;0.90;;;22.80;1.00;;;;;;5112379;28;20487;-71
2022/09/03 12:14:56;;;;;;;1.57;1.07;;;22.70;1.00;;;;;;5106216;28;20498;-72
2022/09/03 12:17:33;;;;;;;1.07;0.90;;;22.70;1.00;;;;;;5105549;28;20576;-71
2022/09/03 12:20:00;;;;;;;4.40;0.90;;;22.70;1.00;;;;;;5115280;28;20448;-72
2022/09/03 12:22:30;;;;;;;0.90;0.80;;;22.60;1.00;;;;;;5119348;28;21066;-71
2022/09/03 12:25:09;;;;;;;1.00;0.90;;;22.50;1.00;;;;;;5102375;28;20460;-71
2022/09/03 12:27:36;;;;;;;1.37;0.90;;;22.40;1.00;;;;;;5097417;28;20585;-72
2022/09/03 12:30:14;;;;;;;1.20;0.90;;;22.20;1.00;;;;;;5099344;28;20445;-73
2022/09/03 12:32:42;;;;;;;1.43;0.80;;;22.20;25.90;;;;;;5097889;28;20476;-71
2022/09/03 12:35:17;;;;;;;1.27;0.80;;;21.70;1.00;;;;;;5111757;27;20433;-73
2022/09/03 12:37:45;;;;;;;1.40;0.70;;;21.30;99.90;;;;;;5099069;27;20461;-71
2022/09/03 12:40:23;;;;;;;0.83;0.60;;;21.10;99.90;;;;;;5102101;28;20449;-71
2022/09/03 12:42:50;;;;;;;0.87;0.60;;;20.80;1.00;;;;;;5117905;28;20452;-71
2022/09/03 12:45:22;;;;;;;0.90;0.70;;;20.50;37.20;;;;;;5117460;28;20445;-73
2022/09/03 12:47:49;;;;;;;0.80;0.60;;;20.40;99.90;;;;;;5118031;28;20449;-71
2022/09/03 12:50:20;;;;;;;1.37;0.50;;;20.30;1.00;;;;;;5119061;28;20887;-71
2022/09/03 12:52:51;;;;;;;1.00;0.50;;;20.50;99.90;;;;;;5101852;28;20884;-72
2022/09/03 12:55:33;;;;;;;0.67;0.40;;;20.40;99.90;;;;;;5099106;28;20518;-73
2022/09/03 12:58:06;;;;;;;0.90;0.40;;;20.40;1.00;;;;;;5105729;28;20461;-75
2022/09/03 13:00:35;;;;;;;1.70;0.50;;;20.20;99.90;;;;;;5110688;28;20567;-72
2022/09/03 13:03:07;;;;;;;0.67;0.40;;;20.20;99.90;;;;;;5099284;28;20515;-73
2022/09/03 13:05:41;;;;;;;1.00;0.50;;;20.20;1.00;;;;;;5104665;28;20936;-73
2022/09/03 13:08:11;;;;;;;0.87;0.30;;;20.10;1.00;;;;;;5097942;28;20456;-73
2022/09/03 13:10:41;;;;;;;0.53;0.30;;;19.90;1.00;;;;;;5097660;28;20995;-73
2022/09/03 13:13:21;;;;;;;0.70;0.40;;;19.70;1.00;;;;;;5096926;28;20452;-74
2022/09/03 13:16:04;;;;;;;0.47;0.30;;;19.40;1.00;;;;;;5098874;28;20449;-71
2022/09/03 13:18:39;;;;;;;0.70;0.40;;;19.10;33.80;;;;;;5098256;28;20514;-73
2022/09/03 13:21:18;;;;;;;0.67;0.40;;;19.00;45.20;;;;;;5097386;28;20479;-72
2022/09/03 13:24:14;;;;;;;0.73;0.40;;;18.80;66.50;;;;;;5097613;28;20546;-71
2022/09/03 13:26:51;;;;;;;0.60;0.30;;;18.80;99.90;;;;;;5103609;28;20458;-71
2022/09/03 13:29:42;;;;;;;0.80;0.40;;;18.80;99.90;;;;;;5114139;28;20453;-72